sensor_id;sensor_type;location;lat;lon;timestamp;pressure;altitude;pressure_sealevel;temperature
29423;BMP180;16399;51.686;8.684;2023-07-20T00:00:35;99596.00;;;15.50
29423;BMP180;16399;51.686;8.684;2023-07-20T00:03:38;99605.00;;;15.50
29423;BMP180;16399;51.686;8.684;2023-07-20T00:06:41;99600.00;;;15.50
29423;BMP180;16399;51.686;8.684;2023-07-20T00:09:43;99611.00;;;15.50
29423;BMP180;16399;51.686;8.684;2023-07-20T00:12:45;99613.00;;;15.50
29423;BMP180;16399;51.686;8.684;2023-07-20T00:15:48;99615.00;;;15.50
29423;BMP180;16399;51.686;8.684;2023-07-20T00:18:51;99615.00;;;15.50
29423;BMP180;16399;51.686;8.684;2023-07-20T00:21:54;99616.00;;;15.60
29423;BMP180;16399;51.686;8.684;2023-07-20T00:24:56;99621.00;;;15.60
29423;BMP180;16399;51.686;8.684;2023-07-20T00:27:59;99616.00;;;15.60
29423;BMP180;16399;51.686;8.684;2023-07-20T00:31:01;99610.00;;;15.70
29423;BMP180;16399;51.686;8.684;2023-07-20T00:34:04;99606.00;;;15.70
29423;BMP180;16399;51.686;8.684;2023-07-20T00:37:07;99607.00;;;15.70
29423;BMP180;16399;51.686;8.684;2023-07-20T00:40:09;99610.00;;;15.80
29423;BMP180;16399;51.686;8.684;2023-07-20T00:43:12;99603.00;;;15.80
29423;BMP180;16399;51.686;8.684;2023-07-20T00:46:14;99614.00;;;15.70
29423;BMP180;16399;51.686;8.684;2023-07-20T00:49:17;99606.00;;;15.70
29423;BMP180;16399;51.686;8.684;2023-07-20T00:52:22;99605.00;;;15.80
29423;BMP180;16399;51.686;8.684;2023-07-20T00:55:25;99607.00;;;15.70
29423;BMP180;16399;51.686;8.684;2023-07-20T00:58:28;99603.00;;;15.70
29423;BMP180;16399;51.686;8.684;2023-07-20T01:01:31;99604.00;;;15.70
29423;BMP180;16399;51.686;8.684;2023-07-20T01:04:34;99598.00;;;15.70
29423;BMP180;16399;51.686;8.684;2023-07-20T01:07:40;99598.00;;;15.70
29423;BMP180;16399;51.686;8.684;2023-07-20T01:10:49;99597.00;;;15.60
29423;BMP180;16399;51.686;8.684;2023-07-20T01:13:50;99597.00;;;15.60
29423;BMP180;16399;51.686;8.684;2023-07-20T01:16:53;99597.00;;;15.60
29423;BMP180;16399;51.686;8.684;2023-07-20T01:19:55;99609.00;;;15.60
29423;BMP180;16399;51.686;8.684;2023-07-20T01:23:22;99612.00;;;15.60
29423;BMP180;16399;51.686;8.684;2023-07-20T01:30:08;99605.00;;;15.60
29423;BMP180;16399;51.686;8.684;2023-07-20T01:33:08;99596.00;;;15.60
29423;BMP180;16399;51.686;8.684;2023-07-20T01:36:11;99600.00;;;15.50
29423;BMP180;16399;51.686;8.684;2023-07-20T01:39:13;99595.00;;;15.50
29423;BMP180;16399;51.686;8.684;2023-07-20T01:42:16;99591.00;;;15.50
29423;BMP180;16399;51.686;8.684;2023-07-20T01:45:18;99600.00;;;15.60
29423;BMP180;16399;51.686;8.684;2023-07-20T01:48:20;99605.00;;;15.60
29423;BMP180;16399;51.686;8.684;2023-07-20T01:51:23;99596.00;;;15.60
29423;BMP180;16399;51.686;8.684;2023-07-20T01:54:25;99597.00;;;15.60
29423;BMP180;16399;51.686;8.684;2023-07-20T01:57:27;99597.00;;;15.60
29423;BMP180;16399;51.686;8.684;2023-07-20T02:00:30;99597.00;;;15.60
29423;BMP180;16399;51.686;8.684;2023-07-20T02:03:32;99583.00;;;15.60
29423;BMP180;16399;51.686;8.684;2023-07-20T02:06:34;99588.00;;;15.60
29423;BMP180;16399;51.686;8.684;2023-07-20T02:09:37;99587.00;;;15.60
29423;BMP180;16399;51.686;8.684;2023-07-20T02:12:39;99582.00;;;15.60
29423;BMP180;16399;51.686;8.684;2023-07-20T02:15:42;99580.00;;;15.60
29423;BMP180;16399;51.686;8.684;2023-07-20T02:18:44;99587.00;;;15.60
29423;BMP180;16399;51.686;8.684;2023-07-20T02:21:46;99594.00;;;15.50
29423;BMP180;16399;51.686;8.684;2023-07-20T02:24:49;99587.00;;;15.50
29423;BMP180;16399;51.686;8.684;2023-07-20T02:27:52;99588.00;;;15.50
29423;BMP180;16399;51.686;8.684;2023-07-20T02:30:54;99583.00;;;15.50
29423;BMP180;16399;51.686;8.684;2023-07-20T02:33:56;99590.00;;;15.50
29423;BMP180;16399;51.686;8.684;2023-07-20T02:36:59;99586.00;;;15.50
29423;BMP180;16399;51.686;8.684;2023-07-20T02:40:02;99584.00;;;15.50
29423;BMP180;16399;51.686;8.684;2023-07-20T02:43:05;99590.00;;;15.50
29423;BMP180;16399;51.686;8.684;2023-07-20T02:46:08;99594.00;;;15.50
29423;BMP180;16399;51.686;8.684;2023-07-20T02:49:10;99585.00;;;15.50
29423;BMP180;16399;51.686;8.684;2023-07-20T02:52:12;99584.00;;;15.50
29423;BMP180;16399;51.686;8.684;2023-07-20T02:55:15;99581.00;;;15.50
29423;BMP180;16399;51.686;8.684;2023-07-20T02:58:18;99582.00;;;15.50
29423;BMP180;16399;51.686;8.684;2023-07-20T03:01:20;99580.00;;;15.50
29423;BMP180;16399;51.686;8.684;2023-07-20T03:04:23;99584.00;;;15.50
29423;BMP180;16399;51.686;8.684;2023-07-20T03:07:27;99580.00;;;15.50
29423;BMP180;16399;51.686;8.684;2023-07-20T03:10:30;99580.00;;;15.60
29423;BMP180;16399;51.686;8.684;2023-07-20T03:13:32;99582.00;;;15.60
29423;BMP180;16399;51.686;8.684;2023-07-20T03:16:34;99586.00;;;15.60
29423;BMP180;16399;51.686;8.684;2023-07-20T03:19:36;99582.00;;;15.60
29423;BMP180;16399;51.686;8.684;2023-07-20T03:22:39;99573.00;;;15.60
29423;BMP180;16399;51.686;8.684;2023-07-20T03:25:41;99578.00;;;15.70
29423;BMP180;16399;51.686;8.684;2023-07-20T03:28:43;99572.00;;;15.70
29423;BMP180;16399;51.686;8.684;2023-07-20T03:31:46;99584.00;;;15.70
29423;BMP180;16399;51.686;8.684;2023-07-20T03:34:48;99576.00;;;15.70
29423;BMP180;16399;51.686;8.684;2023-07-20T03:37:50;99588.00;;;15.70
29423;BMP180;16399;51.686;8.684;2023-07-20T03:40:54;99581.00;;;15.70
29423;BMP180;16399;51.686;8.684;2023-07-20T03:43:57;99581.00;;;15.70
29423;BMP180;16399;51.686;8.684;2023-07-20T03:46:59;99576.00;;;15.70
29423;BMP180;16399;51.686;8.684;2023-07-20T03:50:02;99581.00;;;15.70
29423;BMP180;16399;51.686;8.684;2023-07-20T03:53:06;99575.00;;;15.70
29423;BMP180;16399;51.686;8.684;2023-07-20T03:56:08;99578.00;;;15.70
29423;BMP180;16399;51.686;8.684;2023-07-20T03:59:10;99591.00;;;15.70
29423;BMP180;16399;51.686;8.684;2023-07-20T04:02:12;99576.00;;;15.70
29423;BMP180;16399;51.686;8.684;2023-07-20T04:05:15;99577.00;;;15.70
29423;BMP180;16399;51.686;8.684;2023-07-20T04:08:17;99575.00;;;15.70
29423;BMP180;16399;51.686;8.684;2023-07-20T04:11:20;99580.00;;;15.70
29423;BMP180;16399;51.686;8.684;2023-07-20T04:14:22;99579.00;;;15.80
29423;BMP180;16399;51.686;8.684;2023-07-20T04:17:24;99582.00;;;15.70
29423;BMP180;16399;51.686;8.684;2023-07-20T04:20:27;99592.00;;;15.70
29423;BMP180;16399;51.686;8.684;2023-07-20T04:23:29;99592.00;;;15.70
29423;BMP180;16399;51.686;8.684;2023-07-20T04:26:31;99590.00;;;15.70
29423;BMP180;16399;51.686;8.684;2023-07-20T04:29:34;99600.00;;;15.70
29423;BMP180;16399;51.686;8.684;2023-07-20T04:32:36;99600.00;;;15.70
29423;BMP180;16399;51.686;8.684;2023-07-20T04:35:54;99603.00;;;15.70
29423;BMP180;16399;51.686;8.684;2023-07-20T04:38:56;99600.00;;;15.70
29423;BMP180;16399;51.686;8.684;2023-07-20T04:41:59;99613.00;;;15.70
29423;BMP180;16399;51.686;8.684;2023-07-20T04:45:01;99614.00;;;15.80
29423;BMP180;16399;51.686;8.684;2023-07-20T04:48:06;99614.00;;;15.80
29423;BMP180;16399;51.686;8.684;2023-07-20T04:51:07;99609.00;;;15.90
29423;BMP180;16399;51.686;8.684;2023-07-20T04:54:11;99618.00;;;15.90
29423;BMP180;16399;51.686;8.684;2023-07-20T04:57:14;99619.00;;;16.00
29423;BMP180;16399;51.686;8.684;2023-07-20T05:00:17;99628.00;;;16.00
29423;BMP180;16399;51.686;8.684;2023-07-20T05:03:20;99616.00;;;16.00
29423;BMP180;16399;51.686;8.684;2023-07-20T05:06:22;99626.00;;;16.00
29423;BMP180;16399;51.686;8.684;2023-07-20T05:09:25;99630.00;;;16.00
29423;BMP180;16399;51.686;8.684;2023-07-20T05:12:27;99629.00;;;15.90
29423;BMP180;16399;51.686;8.684;2023-07-20T05:15:29;99632.00;;;15.90
29423;BMP180;16399;51.686;8.684;2023-07-20T05:18:31;99628.00;;;15.90
29423;BMP180;16399;51.686;8.684;2023-07-20T05:21:34;99631.00;;;15.80
29423;BMP180;16399;51.686;8.684;2023-07-20T05:24:36;99627.00;;;15.80
29423;BMP180;16399;51.686;8.684;2023-07-20T05:27:39;99630.00;;;15.80
29423;BMP180;16399;51.686;8.684;2023-07-20T05:30:42;99635.00;;;15.80
29423;BMP180;16399;51.686;8.684;2023-07-20T05:33:44;99642.00;;;15.80
29423;BMP180;16399;51.686;8.684;2023-07-20T05:36:46;99637.00;;;15.80
29423;BMP180;16399;51.686;8.684;2023-07-20T05:39:49;99639.00;;;15.80
29423;BMP180;16399;51.686;8.684;2023-07-20T05:42:51;99644.00;;;15.80
29423;BMP180;16399;51.686;8.684;2023-07-20T05:45:55;99647.00;;;15.80
29423;BMP180;16399;51.686;8.684;2023-07-20T05:48:57;99650.00;;;15.80
29423;BMP180;16399;51.686;8.684;2023-07-20T05:51:59;99650.00;;;15.80
29423;BMP180;16399;51.686;8.684;2023-07-20T05:55:02;99657.00;;;15.80
29423;BMP180;16399;51.686;8.684;2023-07-20T05:58:04;99657.00;;;15.70
29423;BMP180;16399;51.686;8.684;2023-07-20T06:01:06;99656.00;;;15.70
29423;BMP180;16399;51.686;8.684;2023-07-20T06:04:09;99655.00;;;15.60
29423;BMP180;16399;51.686;8.684;2023-07-20T06:07:11;99660.00;;;15.50
29423;BMP180;16399;51.686;8.684;2023-07-20T06:10:13;99662.00;;;15.50
29423;BMP180;16399;51.686;8.684;2023-07-20T06:13:16;99664.00;;;15.50
29423;BMP180;16399;51.686;8.684;2023-07-20T06:16:18;99663.00;;;15.50
29423;BMP180;16399;51.686;8.684;2023-07-20T06:19:21;99671.00;;;15.50
29423;BMP180;16399;51.686;8.684;2023-07-20T06:22:23;99666.00;;;15.50
29423;BMP180;16399;51.686;8.684;2023-07-20T06:25:26;99681.00;;;15.50
29423;BMP180;16399;51.686;8.684;2023-07-20T06:28:28;99684.00;;;15.50
29423;BMP180;16399;51.686;8.684;2023-07-20T06:31:30;99690.00;;;15.60
29423;BMP180;16399;51.686;8.684;2023-07-20T06:34:33;99690.00;;;15.80
29423;BMP180;16399;51.686;8.684;2023-07-20T06:37:36;99692.00;;;15.90
29423;BMP180;16399;51.686;8.684;2023-07-20T06:40:39;99693.00;;;15.90
29423;BMP180;16399;51.686;8.684;2023-07-20T06:43:41;99678.00;;;15.90
29423;BMP180;16399;51.686;8.684;2023-07-20T06:46:43;99682.00;;;16.10
29423;BMP180;16399;51.686;8.684;2023-07-20T06:49:46;99685.00;;;16.20
29423;BMP180;16399;51.686;8.684;2023-07-20T06:52:48;99696.00;;;16.30
29423;BMP180;16399;51.686;8.684;2023-07-20T06:55:50;99695.00;;;16.30
29423;BMP180;16399;51.686;8.684;2023-07-20T06:58:53;99694.00;;;16.10
29423;BMP180;16399;51.686;8.684;2023-07-20T07:01:55;99712.00;;;16.10
29423;BMP180;16399;51.686;8.684;2023-07-20T07:04:58;99707.00;;;16.00
29423;BMP180;16399;51.686;8.684;2023-07-20T07:08:00;99706.00;;;16.00
29423;BMP180;16399;51.686;8.684;2023-07-20T07:11:02;99678.00;;;16.10
29423;BMP180;16399;51.686;8.684;2023-07-20T07:14:04;99712.00;;;16.10
29423;BMP180;16399;51.686;8.684;2023-07-20T07:17:07;99705.00;;;16.20
29423;BMP180;16399;51.686;8.684;2023-07-20T07:20:09;99713.00;;;16.20
29423;BMP180;16399;51.686;8.684;2023-07-20T07:23:12;99710.00;;;16.30
29423;BMP180;16399;51.686;8.684;2023-07-20T07:26:14;99713.00;;;16.40
29423;BMP180;16399;51.686;8.684;2023-07-20T07:29:17;99716.00;;;16.50
29423;BMP180;16399;51.686;8.684;2023-07-20T07:32:19;99711.00;;;16.70
29423;BMP180;16399;51.686;8.684;2023-07-20T07:35:22;99714.00;;;16.90
29423;BMP180;16399;51.686;8.684;2023-07-20T07:38:24;99710.00;;;17.20
29423;BMP180;16399;51.686;8.684;2023-07-20T07:41:27;99724.00;;;17.50
29423;BMP180;16399;51.686;8.684;2023-07-20T07:44:29;99728.00;;;17.70
29423;BMP180;16399;51.686;8.684;2023-07-20T07:47:31;99735.00;;;17.60
29423;BMP180;16399;51.686;8.684;2023-07-20T07:50:34;99737.00;;;17.50
29423;BMP180;16399;51.686;8.684;2023-07-20T07:53:36;99731.00;;;17.40
29423;BMP180;16399;51.686;8.684;2023-07-20T07:56:39;99740.00;;;17.50
29423;BMP180;16399;51.686;8.684;2023-07-20T07:59:42;99740.00;;;17.80
29423;BMP180;16399;51.686;8.684;2023-07-20T08:02:44;99724.00;;;17.90
29423;BMP180;16399;51.686;8.684;2023-07-20T08:05:48;99745.00;;;18.10
29423;BMP180;16399;51.686;8.684;2023-07-20T08:08:51;99742.00;;;18.00
29423;BMP180;16399;51.686;8.684;2023-07-20T08:11:53;99728.00;;;18.00
29423;BMP180;16399;51.686;8.684;2023-07-20T08:14:55;99740.00;;;18.10
29423;BMP180;16399;51.686;8.684;2023-07-20T08:17:58;99746.00;;;18.40
29423;BMP180;16399;51.686;8.684;2023-07-20T08:21:00;99738.00;;;18.60
29423;BMP180;16399;51.686;8.684;2023-07-20T08:24:02;99735.00;;;18.90
29423;BMP180;16399;51.686;8.684;2023-07-20T08:27:05;99733.00;;;19.10
29423;BMP180;16399;51.686;8.684;2023-07-20T08:30:08;99733.00;;;19.30
29423;BMP180;16399;51.686;8.684;2023-07-20T08:33:12;99735.00;;;19.60
29423;BMP180;16399;51.686;8.684;2023-07-20T08:36:16;99754.00;;;19.90
29423;BMP180;16399;51.686;8.684;2023-07-20T08:39:18;99743.00;;;19.80
29423;BMP180;16399;51.686;8.684;2023-07-20T08:42:23;99738.00;;;19.90
29423;BMP180;16399;51.686;8.684;2023-07-20T08:45:30;99747.00;;;20.10
29423;BMP180;16399;51.686;8.684;2023-07-20T08:48:33;99751.00;;;20.20
29423;BMP180;16399;51.686;8.684;2023-07-20T08:51:36;99749.00;;;20.30
29423;BMP180;16399;51.686;8.684;2023-07-20T08:54:39;99751.00;;;20.50
29423;BMP180;16399;51.686;8.684;2023-07-20T08:57:43;99749.00;;;20.60
29423;BMP180;16399;51.686;8.684;2023-07-20T09:00:47;99748.00;;;20.60
29423;BMP180;16399;51.686;8.684;2023-07-20T09:03:51;99748.00;;;20.60
29423;BMP180;16399;51.686;8.684;2023-07-20T09:06:54;99758.00;;;20.80
29423;BMP180;16399;51.686;8.684;2023-07-20T09:09:57;99774.00;;;21.00
29423;BMP180;16399;51.686;8.684;2023-07-20T09:13:00;99766.00;;;21.00
29423;BMP180;16399;51.686;8.684;2023-07-20T09:16:02;99759.00;;;21.00
29423;BMP180;16399;51.686;8.684;2023-07-20T09:19:05;99761.00;;;21.10
29423;BMP180;16399;51.686;8.684;2023-07-20T09:22:08;99768.00;;;21.10
29423;BMP180;16399;51.686;8.684;2023-07-20T09:25:19;99778.00;;;20.90
29423;BMP180;16399;51.686;8.684;2023-07-20T09:28:18;99769.00;;;20.70
29423;BMP180;16399;51.686;8.684;2023-07-20T09:31:21;99759.00;;;20.90
29423;BMP180;16399;51.686;8.684;2023-07-20T09:34:24;99781.00;;;21.20
29423;BMP180;16399;51.686;8.684;2023-07-20T09:37:26;99776.00;;;21.20
29423;BMP180;16399;51.686;8.684;2023-07-20T09:40:29;99780.00;;;20.90
29423;BMP180;16399;51.686;8.684;2023-07-20T09:43:37;99775.00;;;20.60
29423;BMP180;16399;51.686;8.684;2023-07-20T09:46:46;99766.00;;;20.30
29423;BMP180;16399;51.686;8.684;2023-07-20T09:49:49;99779.00;;;20.40
29423;BMP180;16399;51.686;8.684;2023-07-20T09:52:52;99771.00;;;20.40
29423;BMP180;16399;51.686;8.684;2023-07-20T09:55:55;99774.00;;;20.50
29423;BMP180;16399;51.686;8.684;2023-07-20T09:58:57;99773.00;;;20.60
29423;BMP180;16399;51.686;8.684;2023-07-20T10:02:00;99765.00;;;20.80
29423;BMP180;16399;51.686;8.684;2023-07-20T10:05:04;99766.00;;;21.10
29423;BMP180;16399;51.686;8.684;2023-07-20T10:08:09;99753.00;;;21.10
29423;BMP180;16399;51.686;8.684;2023-07-20T10:11:12;99759.00;;;21.10
29423;BMP180;16399;51.686;8.684;2023-07-20T10:14:19;99754.00;;;21.40
29423;BMP180;16399;51.686;8.684;2023-07-20T10:17:22;99764.00;;;21.80
29423;BMP180;16399;51.686;8.684;2023-07-20T10:20:25;99755.00;;;22.20
29423;BMP180;16399;51.686;8.684;2023-07-20T10:23:30;99766.00;;;22.50
29423;BMP180;16399;51.686;8.684;2023-07-20T10:26:32;99757.00;;;22.40
29423;BMP180;16399;51.686;8.684;2023-07-20T10:29:35;99757.00;;;22.20
29423;BMP180;16399;51.686;8.684;2023-07-20T10:32:37;99757.00;;;22.20
29423;BMP180;16399;51.686;8.684;2023-07-20T10:35:51;99751.00;;;22.30
29423;BMP180;16399;51.686;8.684;2023-07-20T10:38:55;99752.00;;;22.40
29423;BMP180;16399;51.686;8.684;2023-07-20T10:42:03;99760.00;;;22.70
29423;BMP180;16399;51.686;8.684;2023-07-20T10:45:05;99746.00;;;22.90
29423;BMP180;16399;51.686;8.684;2023-07-20T10:48:15;99744.00;;;23.10
29423;BMP180;16399;51.686;8.684;2023-07-20T10:51:21;99750.00;;;23.20
29423;BMP180;16399;51.686;8.684;2023-07-20T10:57:30;99761.00;;;23.30
29423;BMP180;16399;51.686;8.684;2023-07-20T11:00:33;99748.00;;;23.10
29423;BMP180;16399;51.686;8.684;2023-07-20T11:03:37;99753.00;;;22.80
29423;BMP180;16399;51.686;8.684;2023-07-20T11:06:46;99758.00;;;22.60
29423;BMP180;16399;51.686;8.684;2023-07-20T11:09:48;99763.00;;;22.50
29423;BMP180;16399;51.686;8.684;2023-07-20T11:13:22;99754.00;;;22.30
29423;BMP180;16399;51.686;8.684;2023-07-20T11:16:43;99756.00;;;22.10
29423;BMP180;16399;51.686;8.684;2023-07-20T11:19:54;99754.00;;;21.90
29423;BMP180;16399;51.686;8.684;2023-07-20T11:22:54;99739.00;;;22.00
29423;BMP180;16399;51.686;8.684;2023-07-20T11:25:56;99746.00;;;22.10
29423;BMP180;16399;51.686;8.684;2023-07-20T11:29:00;99738.00;;;22.20
29423;BMP180;16399;51.686;8.684;2023-07-20T11:32:03;99746.00;;;22.50
29423;BMP180;16399;51.686;8.684;2023-07-20T11:35:06;99745.00;;;22.60
29423;BMP180;16399;51.686;8.684;2023-07-20T11:38:08;99741.00;;;22.50
29423;BMP180;16399;51.686;8.684;2023-07-20T11:41:10;99732.00;;;22.30
29423;BMP180;16399;51.686;8.684;2023-07-20T11:44:13;99732.00;;;22.30
29423;BMP180;16399;51.686;8.684;2023-07-20T11:47:16;99737.00;;;22.10
29423;BMP180;16399;51.686;8.684;2023-07-20T11:50:19;99729.00;;;22.00
29423;BMP180;16399;51.686;8.684;2023-07-20T11:53:22;99738.00;;;21.90
29423;BMP180;16399;51.686;8.684;2023-07-20T11:56:26;99726.00;;;21.80
29423;BMP180;16399;51.686;8.684;2023-07-20T11:59:28;99736.00;;;21.80
29423;BMP180;16399;51.686;8.684;2023-07-20T12:02:32;99729.00;;;21.70
29423;BMP180;16399;51.686;8.684;2023-07-20T12:05:35;99731.00;;;21.70
29423;BMP180;16399;51.686;8.684;2023-07-20T12:08:42;99722.00;;;21.70
29423;BMP180;16399;51.686;8.684;2023-07-20T12:11:48;99711.00;;;21.80
29423;BMP180;16399;51.686;8.684;2023-07-20T12:14:49;99723.00;;;22.00
29423;BMP180;16399;51.686;8.684;2023-07-20T12:17:53;99709.00;;;22.20
29423;BMP180;16399;51.686;8.684;2023-07-20T12:21:00;99710.00;;;22.20
29423;BMP180;16399;51.686;8.684;2023-07-20T12:24:03;99722.00;;;22.40
29423;BMP180;16399;51.686;8.684;2023-07-20T12:27:06;99723.00;;;22.70
29423;BMP180;16399;51.686;8.684;2023-07-20T12:30:09;99709.00;;;23.00
29423;BMP180;16399;51.686;8.684;2023-07-20T12:33:11;99714.00;;;23.10
29423;BMP180;16399;51.686;8.684;2023-07-20T12:36:15;99706.00;;;23.20
29423;BMP180;16399;51.686;8.684;2023-07-20T12:39:17;99696.00;;;23.30
29423;BMP180;16399;51.686;8.684;2023-07-20T12:42:20;99709.00;;;23.40
29423;BMP180;16399;51.686;8.684;2023-07-20T12:45:23;99705.00;;;23.40
29423;BMP180;16399;51.686;8.684;2023-07-20T12:48:26;99706.00;;;23.40
29423;BMP180;16399;51.686;8.684;2023-07-20T12:51:28;99704.00;;;23.40
29423;BMP180;16399;51.686;8.684;2023-07-20T12:54:31;99705.00;;;23.50
29423;BMP180;16399;51.686;8.684;2023-07-20T12:57:34;99697.00;;;23.50
29423;BMP180;16399;51.686;8.684;2023-07-20T13:00:37;99686.00;;;23.30
29423;BMP180;16399;51.686;8.684;2023-07-20T13:03:39;99700.00;;;23.20
29423;BMP180;16399;51.686;8.684;2023-07-20T13:06:42;99703.00;;;23.20
29423;BMP180;16399;51.686;8.684;2023-07-20T13:09:44;99705.00;;;23.20
29423;BMP180;16399;51.686;8.684;2023-07-20T13:12:46;99697.00;;;23.00
29423;BMP180;16399;51.686;8.684;2023-07-20T13:15:48;99699.00;;;22.90
29423;BMP180;16399;51.686;8.684;2023-07-20T13:18:51;99708.00;;;22.80
29423;BMP180;16399;51.686;8.684;2023-07-20T13:21:54;99699.00;;;22.70
29423;BMP180;16399;51.686;8.684;2023-07-20T13:24:56;99705.00;;;22.60
29423;BMP180;16399;51.686;8.684;2023-07-20T13:27:59;99689.00;;;22.50
29423;BMP180;16399;51.686;8.684;2023-07-20T13:31:01;99692.00;;;22.60
29423;BMP180;16399;51.686;8.684;2023-07-20T13:34:03;99690.00;;;22.40
29423;BMP180;16399;51.686;8.684;2023-07-20T13:37:07;99697.00;;;22.40
29423;BMP180;16399;51.686;8.684;2023-07-20T13:40:10;99696.00;;;22.30
29423;BMP180;16399;51.686;8.684;2023-07-20T13:43:14;99703.00;;;22.30
29423;BMP180;16399;51.686;8.684;2023-07-20T13:46:17;99689.00;;;22.20
29423;BMP180;16399;51.686;8.684;2023-07-20T13:49:19;99698.00;;;22.20
29423;BMP180;16399;51.686;8.684;2023-07-20T13:52:21;99703.00;;;22.20
29423;BMP180;16399;51.686;8.684;2023-07-20T13:55:24;99688.00;;;22.20
29423;BMP180;16399;51.686;8.684;2023-07-20T13:58:26;99693.00;;;22.30
29423;BMP180;16399;51.686;8.684;2023-07-20T14:01:28;99682.00;;;22.50
29423;BMP180;16399;51.686;8.684;2023-07-20T14:04:32;99688.00;;;22.60
29423;BMP180;16399;51.686;8.684;2023-07-20T14:07:35;99684.00;;;22.90
29423;BMP180;16399;51.686;8.684;2023-07-20T14:10:38;99677.00;;;23.00
29423;BMP180;16399;51.686;8.684;2023-07-20T14:13:40;99674.00;;;23.00
29423;BMP180;16399;51.686;8.684;2023-07-20T14:16:42;99677.00;;;23.10
29423;BMP180;16399;51.686;8.684;2023-07-20T14:19:45;99679.00;;;23.20
29423;BMP180;16399;51.686;8.684;2023-07-20T14:22:47;99667.00;;;23.20
29423;BMP180;16399;51.686;8.684;2023-07-20T14:25:49;99671.00;;;23.30
29423;BMP180;16399;51.686;8.684;2023-07-20T14:28:54;99665.00;;;23.40
29423;BMP180;16399;51.686;8.684;2023-07-20T14:31:57;99668.00;;;23.40
29423;BMP180;16399;51.686;8.684;2023-07-20T14:35:00;99672.00;;;23.40
29423;BMP180;16399;51.686;8.684;2023-07-20T14:38:02;99664.00;;;23.30
29423;BMP180;16399;51.686;8.684;2023-07-20T14:41:04;99671.00;;;23.20
29423;BMP180;16399;51.686;8.684;2023-07-20T14:44:08;99671.00;;;23.20
29423;BMP180;16399;51.686;8.684;2023-07-20T14:47:11;99668.00;;;23.20
29423;BMP180;16399;51.686;8.684;2023-07-20T14:50:13;99667.00;;;23.20
29423;BMP180;16399;51.686;8.684;2023-07-20T14:53:16;99662.00;;;23.00
29423;BMP180;16399;51.686;8.684;2023-07-20T14:56:18;99658.00;;;22.80
29423;BMP180;16399;51.686;8.684;2023-07-20T14:59:21;99665.00;;;22.80
29423;BMP180;16399;51.686;8.684;2023-07-20T15:02:23;99670.00;;;22.60
29423;BMP180;16399;51.686;8.684;2023-07-20T15:05:26;99675.00;;;22.50
29423;BMP180;16399;51.686;8.684;2023-07-20T15:08:28;99668.00;;;22.30
29423;BMP180;16399;51.686;8.684;2023-07-20T15:11:31;99654.00;;;22.10
29423;BMP180;16399;51.686;8.684;2023-07-20T15:14:33;99656.00;;;22.10
29423;BMP180;16399;51.686;8.684;2023-07-20T15:17:37;99646.00;;;22.30
29423;BMP180;16399;51.686;8.684;2023-07-20T15:20:39;99644.00;;;22.40
29423;BMP180;16399;51.686;8.684;2023-07-20T15:23:42;99636.00;;;22.50
29423;BMP180;16399;51.686;8.684;2023-07-20T15:26:45;99645.00;;;22.60
29423;BMP180;16399;51.686;8.684;2023-07-20T15:29:48;99657.00;;;22.60
29423;BMP180;16399;51.686;8.684;2023-07-20T15:32:51;99645.00;;;22.40
29423;BMP180;16399;51.686;8.684;2023-07-20T15:35:53;99638.00;;;22.20
29423;BMP180;16399;51.686;8.684;2023-07-20T15:38:55;99634.00;;;22.20
29423;BMP180;16399;51.686;8.684;2023-07-20T15:41:58;99627.00;;;22.40
29423;BMP180;16399;51.686;8.684;2023-07-20T15:45:00;99639.00;;;22.50
29423;BMP180;16399;51.686;8.684;2023-07-20T15:48:02;99632.00;;;22.60
29423;BMP180;16399;51.686;8.684;2023-07-20T15:51:05;99638.00;;;22.70
29423;BMP180;16399;51.686;8.684;2023-07-20T15:54:08;99621.00;;;22.80
29423;BMP180;16399;51.686;8.684;2023-07-20T15:57:11;99622.00;;;23.00
29423;BMP180;16399;51.686;8.684;2023-07-20T16:00:14;99616.00;;;23.00
29423;BMP180;16399;51.686;8.684;2023-07-20T16:03:16;99618.00;;;23.00
29423;BMP180;16399;51.686;8.684;2023-07-20T16:06:19;99614.00;;;23.10
29423;BMP180;16399;51.686;8.684;2023-07-20T16:09:21;99611.00;;;23.10
29423;BMP180;16399;51.686;8.684;2023-07-20T16:12:24;99619.00;;;23.00
29423;BMP180;16399;51.686;8.684;2023-07-20T16:15:28;99618.00;;;22.90
29423;BMP180;16399;51.686;8.684;2023-07-20T16:18:30;99616.00;;;22.80
29423;BMP180;16399;51.686;8.684;2023-07-20T16:21:32;99615.00;;;22.80
29423;BMP180;16399;51.686;8.684;2023-07-20T16:24:35;99618.00;;;22.70
29423;BMP180;16399;51.686;8.684;2023-07-20T16:27:37;99611.00;;;22.70
29423;BMP180;16399;51.686;8.684;2023-07-20T16:30:39;99611.00;;;22.70
29423;BMP180;16399;51.686;8.684;2023-07-20T16:33:43;99599.00;;;22.60
29423;BMP180;16399;51.686;8.684;2023-07-20T16:36:46;99594.00;;;22.60
29423;BMP180;16399;51.686;8.684;2023-07-20T16:39:51;99595.00;;;22.60
29423;BMP180;16399;51.686;8.684;2023-07-20T16:42:53;99597.00;;;22.50
29423;BMP180;16399;51.686;8.684;2023-07-20T16:46:07;99593.00;;;22.50
29423;BMP180;16399;51.686;8.684;2023-07-20T16:49:11;99600.00;;;22.50
29423;BMP180;16399;51.686;8.684;2023-07-20T16:52:14;99602.00;;;22.50
29423;BMP180;16399;51.686;8.684;2023-07-20T16:55:16;99605.00;;;22.40
29423;BMP180;16399;51.686;8.684;2023-07-20T16:58:19;99591.00;;;22.40
29423;BMP180;16399;51.686;8.684;2023-07-20T17:01:22;99587.00;;;22.30
29423;BMP180;16399;51.686;8.684;2023-07-20T17:04:24;99594.00;;;22.30
29423;BMP180;16399;51.686;8.684;2023-07-20T17:07:27;99586.00;;;22.20
29423;BMP180;16399;51.686;8.684;2023-07-20T17:10:29;99595.00;;;22.10
29423;BMP180;16399;51.686;8.684;2023-07-20T17:13:31;99592.00;;;22.00
29423;BMP180;16399;51.686;8.684;2023-07-20T17:16:34;99588.00;;;21.90
29423;BMP180;16399;51.686;8.684;2023-07-20T17:19:36;99589.00;;;21.80
29423;BMP180;16399;51.686;8.684;2023-07-20T17:22:39;99595.00;;;21.70
29423;BMP180;16399;51.686;8.684;2023-07-20T17:25:45;99587.00;;;21.50
29423;BMP180;16399;51.686;8.684;2023-07-20T17:28:48;99580.00;;;21.40
29423;BMP180;16399;51.686;8.684;2023-07-20T17:31:50;99583.00;;;21.30
29423;BMP180;16399;51.686;8.684;2023-07-20T17:34:52;99576.00;;;21.30
29423;BMP180;16399;51.686;8.684;2023-07-20T17:37:56;99587.00;;;21.20
29423;BMP180;16399;51.686;8.684;2023-07-20T17:40:58;99585.00;;;21.00